Claquato, Washington
Current Conditions -  °F | °C
As of 7:35 AM on Thursday 23 Oct 2014 (Local Time) from KCLS Reporting Station
Overcast Overcast  
Wind Chill: 52°   Ceiling: 5500
Heat Index: 52°   Visibility: 10mi
Dew Point: 50°   Wind: 6mph
Humidity: 94%   Direction: NA
Pressure: 29.74"   Gusts: NA
Location:  46.6561°N, 122.993°W
Report Text: KCLS 231435Z AUTO VRB05KT 10SM FEW030 BKN055 OVC065 11/10 A2974 RMK AO2
Loading
Personal Weather Stations






























Interactive Weather Map
Tropical Storm Tracking
New forecast layout! Learn more

10-Day Weather Forecast

Advertisements
Track Severe Weather on mobile